createdAt,value
2023-04-20T00:00:51.975Z,56.55
2023-04-20T00:01:52.036Z,56.82
2023-04-20T00:02:52.187Z,56.88
2023-04-20T00:03:52.497Z,56.38
2023-04-20T00:04:52.278Z,56.44
2023-04-20T00:05:52.266Z,56.30
2023-04-20T00:06:52.340Z,56.31
2023-04-20T00:07:52.377Z,56.56
2023-04-20T00:08:52.446Z,55.86
2023-04-20T00:09:52.529Z,55.39
2023-04-20T00:10:52.543Z,55.51
2023-04-20T00:11:52.625Z,55.90
2023-04-20T00:12:52.661Z,56.57
2023-04-20T00:13:52.709Z,56.69
2023-04-20T00:14:52.774Z,56.81
2023-04-20T00:15:52.824Z,56.86
2023-04-20T00:16:52.908Z,56.65
2023-04-20T00:17:52.958Z,57.38
2023-04-20T00:18:53.052Z,57.29
2023-04-20T00:19:53.060Z,58.04
2023-04-20T00:20:53.095Z,57.71
2023-04-20T00:21:53.157Z,57.64
2023-04-20T00:22:53.198Z,57.12
2023-04-20T00:23:53.255Z,57.10
2023-04-20T00:24:53.313Z,57.43
2023-04-20T00:25:53.355Z,57.23
2023-04-20T00:26:53.388Z,57.02
2023-04-20T00:27:53.378Z,56.81
2023-04-20T00:28:53.425Z,57.16
2023-04-20T00:29:53.429Z,57.00
2023-04-20T00:30:53.447Z,56.93
2023-04-20T00:31:53.427Z,57.12
2023-04-20T00:32:53.538Z,56.94
2023-04-20T00:33:53.516Z,56.69
2023-04-20T00:34:53.528Z,56.58
2023-04-20T00:35:53.540Z,56.82
2023-04-20T00:36:53.617Z,56.43
2023-04-20T00:37:53.619Z,56.35
2023-04-20T00:38:53.701Z,56.43
2023-04-20T00:39:53.667Z,56.33
2023-04-20T00:40:53.680Z,56.32
2023-04-20T00:41:53.706Z,56.89
2023-04-20T00:42:53.749Z,56.95
2023-04-20T00:43:53.845Z,57.61
2023-04-20T00:44:53.806Z,58.14
2023-04-20T00:45:53.863Z,57.92
2023-04-20T00:46:53.807Z,57.33
2023-04-20T00:47:53.860Z,57.27
2023-04-20T00:48:53.894Z,57.40
2023-04-20T00:49:53.871Z,57.08
2023-04-20T00:50:53.862Z,56.62
2023-04-20T00:51:53.809Z,57.17
2023-04-20T00:52:53.952Z,57.56
2023-04-20T00:53:53.922Z,57.63
2023-04-20T00:54:53.933Z,57.35
2023-04-20T00:55:53.926Z,57.26
2023-04-20T00:56:53.993Z,57.19
2023-04-20T00:57:53.955Z,56.97
2023-04-20T00:58:53.988Z,56.89
2023-04-20T00:59:54.022Z,57.53
2023-04-20T01:00:54.022Z,57.75
2023-04-20T01:01:54.126Z,57.80
2023-04-20T01:02:54.286Z,58.17
2023-04-20T01:03:54.222Z,58.15
2023-04-20T01:04:54.133Z,58.06
2023-04-20T01:05:54.165Z,57.92
2023-04-20T01:06:54.206Z,57.51
2023-04-20T01:07:54.258Z,57.57
2023-04-20T01:08:54.290Z,57.71
2023-04-20T01:09:54.251Z,57.99
2023-04-20T01:10:54.268Z,57.76
2023-04-20T01:11:54.253Z,58.29
2023-04-20T01:12:54.277Z,58.22
2023-04-20T01:13:54.333Z,58.28
2023-04-20T01:14:54.307Z,57.96
2023-04-20T01:15:54.326Z,57.74
2023-04-20T01:16:54.336Z,57.87
2023-04-20T01:17:54.385Z,57.87
2023-04-20T01:18:54.384Z,58.26
2023-04-20T01:19:54.381Z,58.15
2023-04-20T01:20:54.366Z,58.25
2023-04-20T01:21:54.322Z,58.37
2023-04-20T01:22:54.389Z,58.45
2023-04-20T01:23:54.347Z,58.62
2023-04-20T01:24:54.360Z,58.93
2023-04-20T01:25:54.359Z,58.79
2023-04-20T01:26:54.386Z,58.72
2023-04-20T01:27:54.383Z,58.49
2023-04-20T01:28:54.443Z,58.54
2023-04-20T01:29:54.421Z,58.75
2023-04-20T01:30:54.438Z,58.45
2023-04-20T01:31:54.485Z,58.72
2023-04-20T01:32:54.457Z,58.73
2023-04-20T01:33:54.425Z,58.82
2023-04-20T01:34:54.415Z,58.93
2023-04-20T01:35:54.389Z,58.94
2023-04-20T01:36:54.434Z,58.84
2023-04-20T01:37:54.446Z,58.71
2023-04-20T01:38:54.473Z,58.62
2023-04-20T01:39:54.535Z,58.55
2023-04-20T01:40:54.513Z,58.42
2023-04-20T01:41:54.509Z,58.10
2023-04-20T01:42:54.526Z,58.05
2023-04-20T01:43:54.522Z,58.09
2023-04-20T01:44:54.527Z,57.91
2023-04-20T01:45:54.534Z,58.09
2023-04-20T01:46:54.642Z,58.04
2023-04-20T01:47:54.591Z,58.40
2023-04-20T01:48:54.615Z,58.30
2023-04-20T01:49:54.589Z,57.99
2023-04-20T01:50:54.605Z,57.89
2023-04-20T01:51:54.618Z,57.76
2023-04-20T01:52:54.622Z,58.08
2023-04-20T01:53:54.645Z,57.84
2023-04-20T01:54:54.633Z,58.16
2023-04-20T01:55:54.653Z,57.70
2023-04-20T01:56:54.672Z,57.66
2023-04-20T01:57:54.698Z,57.98
2023-04-20T01:58:54.709Z,58.22
2023-04-20T01:59:54.738Z,58.03
2023-04-20T02:00:54.772Z,58.16
2023-04-20T02:01:54.786Z,58.25
2023-04-20T02:02:54.879Z,58.43
2023-04-20T02:03:54.936Z,58.27
2023-04-20T02:04:54.773Z,57.89
2023-04-20T02:05:54.842Z,58.12
2023-04-20T02:06:54.825Z,58.02
2023-04-20T02:07:54.840Z,58.19
2023-04-20T02:08:54.898Z,58.45
2023-04-20T02:09:54.855Z,58.65
2023-04-20T02:10:54.919Z,58.99
2023-04-20T02:11:54.911Z,58.79
2023-04-20T02:12:54.969Z,59.13
2023-04-20T02:13:54.943Z,59.22
2023-04-20T02:14:54.952Z,59.00
2023-04-20T02:15:54.994Z,58.48
2023-04-20T02:16:55.035Z,58.65
2023-04-20T02:17:55.024Z,58.90
2023-04-20T02:18:55.040Z,58.91
2023-04-20T02:19:55.018Z,58.82
2023-04-20T02:20:55.016Z,58.95
2023-04-20T02:21:55.989Z,59.09
2023-04-20T02:22:55.062Z,59.19
2023-04-20T02:23:55.520Z,59.49
2023-04-20T02:24:55.179Z,59.98
2023-04-20T02:25:55.180Z,60.19
2023-04-20T02:26:55.199Z,59.95
2023-04-20T02:27:55.233Z,60.04
2023-04-20T02:28:55.291Z,60.09
2023-04-20T02:29:55.350Z,60.05
2023-04-20T02:30:55.425Z,60.09
2023-04-20T02:31:55.417Z,59.95
2023-04-20T02:32:55.464Z,59.93
2023-04-20T02:33:55.518Z,59.77
2023-04-20T02:34:55.529Z,59.94
2023-04-20T02:35:55.538Z,59.79
2023-04-20T02:36:55.621Z,59.90
2023-04-20T02:37:55.627Z,59.76
2023-04-20T02:38:55.698Z,59.75
2023-04-20T02:39:55.720Z,59.80
2023-04-20T02:40:55.738Z,59.94
2023-04-20T02:41:55.787Z,59.90
2023-04-20T02:42:55.830Z,59.60
2023-04-20T02:43:55.902Z,59.46
2023-04-20T02:44:55.906Z,59.24
2023-04-20T02:45:55.940Z,59.14
2023-04-20T02:46:56.074Z,59.25
2023-04-20T02:47:56.147Z,59.50
2023-04-20T02:48:56.058Z,59.61
2023-04-20T02:49:56.089Z,60.08
2023-04-20T02:50:56.123Z,59.92
2023-04-20T02:51:56.146Z,59.85
2023-04-20T02:52:56.227Z,59.95
2023-04-20T02:53:56.282Z,59.90
2023-04-20T02:54:56.273Z,59.86
2023-04-20T02:55:56.308Z,59.92
2023-04-20T02:56:57.927Z,59.81
2023-04-20T02:57:56.380Z,60.13
2023-04-20T02:58:56.496Z,60.14
2023-04-20T02:59:56.474Z,60.02
2023-04-20T03:00:56.540Z,59.80
2023-04-20T03:01:56.642Z,60.04
2023-04-20T03:02:56.821Z,60.14
2023-04-20T03:03:56.847Z,60.67
2023-04-20T03:04:56.775Z,60.50
2023-04-20T03:05:56.907Z,60.73
2023-04-20T03:06:56.832Z,61.00
2023-04-20T03:07:56.921Z,61.07
2023-04-20T03:08:56.974Z,60.92
2023-04-20T03:09:57.011Z,60.87
2023-04-20T03:10:57.081Z,61.01
2023-04-20T03:11:57.125Z,60.52
2023-04-20T03:12:57.186Z,60.57
2023-04-20T03:13:57.305Z,60.69
2023-04-20T03:14:57.319Z,60.47
2023-04-20T03:15:57.432Z,60.76
2023-04-20T03:16:57.436Z,60.76
2023-04-20T03:17:57.515Z,60.92
2023-04-20T03:18:57.547Z,60.93
2023-04-20T03:19:57.598Z,61.08
2023-04-20T03:20:57.673Z,61.01
2023-04-20T03:21:57.758Z,61.14
2023-04-20T03:22:57.805Z,61.22
2023-04-20T03:23:57.855Z,61.07
2023-04-20T03:24:57.941Z,60.94
2023-04-20T03:25:57.984Z,60.96
2023-04-20T03:26:58.063Z,61.33
2023-04-20T03:27:58.168Z,61.64
2023-04-20T03:28:58.262Z,61.90
2023-04-20T03:29:58.226Z,61.64
2023-04-20T03:30:58.239Z,61.48
2023-04-20T03:31:58.359Z,61.52
2023-04-20T03:32:58.491Z,61.19
2023-04-20T03:33:58.441Z,61.32
2023-04-20T03:34:58.490Z,61.00
2023-04-20T03:35:58.554Z,61.15
2023-04-20T03:36:58.601Z,60.82
2023-04-20T03:37:58.658Z,60.61
2023-04-20T03:38:58.733Z,60.42
2023-04-20T03:39:58.834Z,60.24
2023-04-20T03:40:58.851Z,60.08
2023-04-20T03:41:58.968Z,59.99
2023-04-20T03:42:58.962Z,59.99
2023-04-20T03:43:59.058Z,60.36
2023-04-20T03:44:59.097Z,60.43
2023-04-20T03:45:59.241Z,60.84
2023-04-20T03:46:59.253Z,60.80
2023-04-20T03:47:59.380Z,60.90
2023-04-20T03:48:59.366Z,61.04
2023-04-20T03:49:59.417Z,61.27
2023-04-20T03:50:59.496Z,61.40
2023-04-20T03:51:59.548Z,61.40
2023-04-20T03:52:59.595Z,61.48
2023-04-20T03:53:59.669Z,61.16
2023-04-20T03:54:59.716Z,61.32
2023-04-20T03:55:59.740Z,61.43
2023-04-20T03:56:59.831Z,61.45
2023-04-20T03:57:59.867Z,61.53
2023-04-20T03:58:59.943Z,61.57
2023-04-20T03:59:59.996Z,61.37
2023-04-20T04:01:00.068Z,61.40
2023-04-20T04:02:00.225Z,61.30
2023-04-20T04:03:00.294Z,61.46
2023-04-20T04:04:00.573Z,61.43
2023-04-20T04:05:00.330Z,61.07
2023-04-20T04:06:00.256Z,60.94
2023-04-20T04:07:00.357Z,61.07
2023-04-20T04:08:00.430Z,61.05
2023-04-20T04:09:00.464Z,61.09
2023-04-20T04:10:00.535Z,61.02
2023-04-20T04:11:00.591Z,61.15
2023-04-20T04:12:00.616Z,61.30
2023-04-20T04:13:00.700Z,61.03
2023-04-20T04:14:00.800Z,60.99
2023-04-20T04:15:00.837Z,60.94
2023-04-20T04:16:00.886Z,60.76
2023-04-20T04:17:00.956Z,60.76
2023-04-20T04:18:01.071Z,60.73
2023-04-20T04:19:01.114Z,60.75
2023-04-20T04:20:01.159Z,60.79
2023-04-20T04:21:01.166Z,60.92
2023-04-20T04:22:01.255Z,60.87
2023-04-20T04:23:01.283Z,60.86
2023-04-20T04:24:01.382Z,60.88
2023-04-20T04:25:01.468Z,61.01
2023-04-20T04:26:01.555Z,61.06
2023-04-20T04:27:01.561Z,60.99
2023-04-20T04:28:01.617Z,61.16
2023-04-20T04:29:01.676Z,61.20
2023-04-20T04:30:01.778Z,61.10
2023-04-20T04:31:01.896Z,61.00
2023-04-20T04:32:01.948Z,61.30
2023-04-20T04:33:02.025Z,61.59
2023-04-20T04:34:02.021Z,61.15
2023-04-20T04:35:02.025Z,60.85
2023-04-20T04:36:02.141Z,60.87
2023-04-20T04:37:02.155Z,60.95
2023-04-20T04:38:02.161Z,60.78
2023-04-20T04:39:02.201Z,61.13
2023-04-20T04:40:02.899Z,61.00
2023-04-20T04:41:02.284Z,60.95
2023-04-20T04:42:04.281Z,61.07
2023-04-20T04:43:02.456Z,61.06
2023-04-20T04:44:02.546Z,60.98
2023-04-20T04:45:02.564Z,60.95
2023-04-20T04:46:02.656Z,60.96
2023-04-20T04:47:02.705Z,60.84
2023-04-20T04:48:02.810Z,61.25
2023-04-20T04:49:02.860Z,61.27
2023-04-20T04:50:02.896Z,61.22
2023-04-20T04:51:02.964Z,61.45
2023-04-20T04:52:03.017Z,61.44
2023-04-20T04:53:03.080Z,61.57
2023-04-20T04:54:03.141Z,61.65
2023-04-20T04:55:03.156Z,61.66
2023-04-20T04:56:03.204Z,61.84
2023-04-20T04:57:03.228Z,61.74
2023-04-20T04:58:03.263Z,61.52
2023-04-20T04:59:03.354Z,61.77
2023-04-20T05:00:03.381Z,61.41
2023-04-20T05:01:03.484Z,61.33
2023-04-20T05:02:03.650Z,61.42
2023-04-20T05:03:03.658Z,61.47
2023-04-20T05:04:03.818Z,61.61
2023-04-20T05:05:03.792Z,61.58
2023-04-20T05:06:03.731Z,61.62
2023-04-20T05:07:03.741Z,61.73
2023-04-20T05:08:03.744Z,61.83
2023-04-20T05:09:03.821Z,61.90
2023-04-20T05:10:03.794Z,62.10
2023-04-20T05:11:03.779Z,62.17
2023-04-20T05:12:03.779Z,61.99
2023-04-20T05:13:03.797Z,61.84
2023-04-20T05:14:03.792Z,61.70
2023-04-20T05:15:03.795Z,62.00
2023-04-20T05:16:03.820Z,61.73
2023-04-20T05:17:03.793Z,61.68
2023-04-20T05:18:03.908Z,61.84
2023-04-20T05:19:03.862Z,61.31
2023-04-20T05:20:03.882Z,61.38
2023-04-20T05:21:03.957Z,61.60
2023-04-20T05:22:04.034Z,61.44
2023-04-20T05:23:05.019Z,61.41
2023-04-20T05:24:04.155Z,61.44
2023-04-20T05:25:04.151Z,61.37
2023-04-20T05:26:04.242Z,61.48
2023-04-20T05:27:04.283Z,61.52
2023-04-20T05:28:04.340Z,61.67
2023-04-20T05:29:04.348Z,61.73
2023-04-20T05:30:17.131Z,61.69
2023-04-20T05:31:05.367Z,61.52
2023-04-20T05:32:04.370Z,61.37
2023-04-20T05:33:04.434Z,61.54
2023-04-20T05:34:04.320Z,61.92
2023-04-20T05:35:04.348Z,61.59
2023-04-20T05:36:04.358Z,61.08
2023-04-20T05:37:04.306Z,60.97
2023-04-20T05:38:04.315Z,61.06
2023-04-20T05:39:04.353Z,61.11
2023-04-20T05:40:04.428Z,61.02
2023-04-20T05:41:04.479Z,61.09
2023-04-20T05:42:04.519Z,60.80
2023-04-20T05:43:04.651Z,61.02
2023-04-20T05:44:04.657Z,61.26
2023-04-20T05:45:04.767Z,60.98
2023-04-20T05:46:04.820Z,61.04
2023-04-20T05:47:04.917Z,60.87
2023-04-20T05:48:04.957Z,60.73
2023-04-20T05:49:05.006Z,60.54
2023-04-20T05:50:05.022Z,60.49
2023-04-20T05:51:05.109Z,60.65
2023-04-20T05:52:05.169Z,60.59
2023-04-20T05:53:05.278Z,60.70
2023-04-20T05:54:05.278Z,60.88
2023-04-20T05:55:05.344Z,60.73
2023-04-20T05:56:05.355Z,60.51
2023-04-20T05:57:05.401Z,60.59
2023-04-20T05:58:05.482Z,60.69
2023-04-20T05:59:05.541Z,60.55
2023-04-20T06:00:05.587Z,60.85
2023-04-20T06:01:05.640Z,61.02
2023-04-20T06:02:05.741Z,60.57
2023-04-20T06:03:05.907Z,60.37
2023-04-20T06:04:05.944Z,60.31
2023-04-20T06:05:05.968Z,59.90
2023-04-20T06:06:05.940Z,59.96
2023-04-20T06:07:06.054Z,60.06
2023-04-20T06:08:06.069Z,60.04
2023-04-20T06:09:06.080Z,60.26
2023-04-20T06:10:06.186Z,60.05
2023-04-20T06:11:06.219Z,60.22
2023-04-20T06:12:06.239Z,60.44
2023-04-20T06:13:06.315Z,60.20
2023-04-20T06:14:06.340Z,60.58
2023-04-20T06:15:06.368Z,61.02
2023-04-20T06:16:06.506Z,60.03
2023-04-20T06:17:06.458Z,60.22
2023-04-20T06:18:06.532Z,60.34
2023-04-20T06:19:06.577Z,60.55
2023-04-20T06:20:06.592Z,60.44
2023-04-20T06:21:06.646Z,60.75
2023-04-20T06:22:06.704Z,60.72
2023-04-20T06:23:06.719Z,61.06
2023-04-20T06:24:06.801Z,61.10
2023-04-20T06:25:06.872Z,61.19
2023-04-20T06:26:06.956Z,61.06
2023-04-20T06:27:06.971Z,61.38
2023-04-20T06:28:07.056Z,60.90
2023-04-20T06:29:07.150Z,60.56
2023-04-20T06:30:07.188Z,60.23
2023-04-20T06:31:07.244Z,60.08
2023-04-20T06:32:07.272Z,60.23
2023-04-20T06:33:07.765Z,60.59
2023-04-20T06:34:07.413Z,60.59
2023-04-20T06:35:07.392Z,60.46
2023-04-20T06:36:07.463Z,60.31
2023-04-20T06:37:07.540Z,59.88
2023-04-20T06:38:07.596Z,59.92
2023-04-20T06:39:07.597Z,59.80
2023-04-20T06:40:07.635Z,59.92
2023-04-20T06:41:07.691Z,59.77
2023-04-20T06:42:07.732Z,59.76
2023-04-20T06:43:07.811Z,59.58
2023-04-20T06:44:07.870Z,59.22
2023-04-20T06:45:07.877Z,59.12
2023-04-20T06:46:07.917Z,59.24
2023-04-20T06:47:08.067Z,59.32
2023-04-20T06:48:23.575Z,59.14
2023-04-20T06:49:09.022Z,59.28
2023-04-20T06:50:08.025Z,59.20
2023-04-20T06:51:08.074Z,59.23
2023-04-20T06:52:08.045Z,59.13
2023-04-20T06:53:08.045Z,59.03
2023-04-20T06:54:08.110Z,58.58
2023-04-20T06:55:08.096Z,58.61
2023-04-20T06:56:08.100Z,58.85
2023-04-20T06:57:08.120Z,58.76
2023-04-20T06:58:08.148Z,58.64
2023-04-20T06:59:08.144Z,58.99
2023-04-20T07:00:08.177Z,58.69
2023-04-20T07:01:08.238Z,58.77
2023-04-20T07:02:08.386Z,58.72
2023-04-20T07:03:08.322Z,59.02
2023-04-20T07:04:08.354Z,59.03
2023-04-20T07:05:08.280Z,59.00
2023-04-20T07:06:08.268Z,59.42
2023-04-20T07:07:08.327Z,58.91
2023-04-20T07:08:08.340Z,58.46
2023-04-20T07:09:08.371Z,58.83
2023-04-20T07:10:08.410Z,59.16
2023-04-20T07:11:08.445Z,59.19
2023-04-20T07:12:08.434Z,59.18
2023-04-20T07:13:08.495Z,58.87
2023-04-20T07:14:08.523Z,58.77
2023-04-20T07:15:08.545Z,59.32
2023-04-20T07:16:08.556Z,59.11
2023-04-20T07:17:08.611Z,59.21
2023-04-20T07:18:08.635Z,59.63
2023-04-20T07:19:08.594Z,59.67
2023-04-20T07:20:08.658Z,59.87
2023-04-20T07:21:08.607Z,59.34
2023-04-20T07:22:08.652Z,59.15
2023-04-20T07:23:08.636Z,59.09
2023-04-20T07:24:08.641Z,58.90
2023-04-20T07:25:08.704Z,59.18
2023-04-20T07:26:08.661Z,59.10
2023-04-20T07:27:08.657Z,59.43
2023-04-20T07:28:08.653Z,59.22
2023-04-20T07:29:08.670Z,58.94
2023-04-20T07:30:08.725Z,59.07
2023-04-20T07:31:08.675Z,58.75
2023-04-20T07:32:08.767Z,58.51
2023-04-20T07:33:08.828Z,58.92
2023-04-20T07:34:08.691Z,59.04
2023-04-20T07:35:08.718Z,58.92
2023-04-20T07:36:08.678Z,59.01
2023-04-20T07:37:08.734Z,59.09
2023-04-20T07:38:08.702Z,59.91
2023-04-20T07:39:08.697Z,59.06
2023-04-20T07:40:08.712Z,59.14
2023-04-20T07:41:08.685Z,59.05
2023-04-20T07:42:08.671Z,58.77
2023-04-20T07:43:08.665Z,58.96
2023-04-20T07:44:08.695Z,59.09
2023-04-20T07:45:08.700Z,59.22
2023-04-20T07:46:08.761Z,58.76
2023-04-20T07:47:08.720Z,58.70
2023-04-20T07:48:08.804Z,58.15
2023-04-20T07:49:08.827Z,58.38
2023-04-20T07:50:08.794Z,57.97
2023-04-20T07:51:08.785Z,57.32
2023-04-20T07:52:16.289Z,57.79
2023-04-20T07:53:09.770Z,58.28
2023-04-20T07:54:08.807Z,58.49
2023-04-20T07:55:08.765Z,58.23
2023-04-20T07:56:08.749Z,58.18
2023-04-20T07:57:08.774Z,57.84
2023-04-20T07:58:08.734Z,58.25
2023-04-20T07:59:08.769Z,57.83
2023-04-20T08:00:08.947Z,57.84
2023-04-20T08:01:08.761Z,57.75
2023-04-20T08:02:08.972Z,57.61
2023-04-20T08:03:08.973Z,57.14
2023-04-20T08:04:09.073Z,56.38
2023-04-20T08:05:08.978Z,55.64
2023-04-20T08:06:09.000Z,55.04
2023-04-20T08:07:08.972Z,56.21
2023-04-20T08:08:09.007Z,57.22
2023-04-20T08:09:09.999Z,56.83
2023-04-20T08:10:09.128Z,56.39
2023-04-20T08:11:09.075Z,55.59
2023-04-20T08:12:09.062Z,56.27
2023-04-20T08:13:09.100Z,55.91
2023-04-20T08:15:09.234Z,55.49
2023-04-20T08:16:09.127Z,56.12
2023-04-20T08:17:09.164Z,55.25
2023-04-20T08:18:09.261Z,54.96
2023-04-20T08:19:09.249Z,55.29
2023-04-20T08:20:09.226Z,55.27
2023-04-20T08:21:09.199Z,54.84
2023-04-20T08:22:09.242Z,55.27
2023-04-20T08:23:09.236Z,54.45
2023-04-20T08:24:09.194Z,54.26
2023-04-20T08:25:09.233Z,53.97
2023-04-20T08:26:09.257Z,53.80
2023-04-20T08:27:09.308Z,53.69
2023-04-20T08:28:15.434Z,53.61
2023-04-20T08:29:10.289Z,54.02
2023-04-20T08:30:09.271Z,53.39
2023-04-20T08:31:09.287Z,53.43
2023-04-20T08:32:09.420Z,52.66
2023-04-20T08:33:09.299Z,53.01
2023-04-20T08:34:09.240Z,53.01
2023-04-20T08:35:09.246Z,53.00
2023-04-20T08:36:09.232Z,53.40
2023-04-20T08:37:09.208Z,53.35
2023-04-20T08:38:09.231Z,53.11
2023-04-20T08:39:09.323Z,52.72
2023-04-20T08:40:09.393Z,52.65
2023-04-20T08:41:09.366Z,53.49
2023-04-20T08:42:09.443Z,53.31
2023-04-20T08:43:09.558Z,53.26
2023-04-20T08:44:09.574Z,53.42
2023-04-20T08:45:09.619Z,54.29
2023-04-20T08:46:09.652Z,53.74
2023-04-20T08:47:09.673Z,53.03
2023-04-20T08:48:09.762Z,53.42
2023-04-20T08:49:09.794Z,53.27
2023-04-20T08:50:09.927Z,53.27
2023-04-20T08:51:09.872Z,53.19
2023-04-20T08:52:09.893Z,52.33
2023-04-20T08:53:09.930Z,51.01
2023-04-20T08:54:09.941Z,51.33
2023-04-20T08:55:09.935Z,52.69
2023-04-20T08:56:09.935Z,53.00
2023-04-20T08:57:09.982Z,53.30
2023-04-20T08:58:09.957Z,52.11
2023-04-20T08:59:09.981Z,51.48
2023-04-20T09:00:12.121Z,51.61
2023-04-20T09:01:09.964Z,52.51
2023-04-20T09:02:09.999Z,52.37
2023-04-20T09:03:10.148Z,51.65
2023-04-20T09:04:10.115Z,51.01
2023-04-20T09:05:09.977Z,51.56
2023-04-20T09:06:09.900Z,51.89
2023-04-20T09:07:09.911Z,51.11
2023-04-20T09:08:09.895Z,51.65
2023-04-20T09:09:09.891Z,51.38
2023-04-20T09:10:09.867Z,51.36
2023-04-20T09:11:09.852Z,52.24
2023-04-20T09:12:09.880Z,52.39
2023-04-20T09:13:09.890Z,51.62
2023-04-20T09:14:09.874Z,51.62
2023-04-20T09:15:09.874Z,51.61
2023-04-20T09:16:09.876Z,51.90
2023-04-20T09:17:09.844Z,51.22
2023-04-20T09:18:09.894Z,51.19
2023-04-20T09:19:10.440Z,51.16
2023-04-20T09:20:09.786Z,51.12
2023-04-20T09:21:09.830Z,51.39
2023-04-20T09:22:09.806Z,51.12
2023-04-20T09:23:09.768Z,51.02
2023-04-20T09:24:09.786Z,50.76
2023-04-20T09:25:09.779Z,50.34
2023-04-20T09:26:09.764Z,50.41
2023-04-20T09:27:09.780Z,51.06
2023-04-20T09:28:09.739Z,50.57
2023-04-20T09:29:09.771Z,50.68
2023-04-20T09:30:09.745Z,50.50
2023-04-20T09:31:09.773Z,48.32
2023-04-20T09:32:09.815Z,48.51
2023-04-20T09:33:09.877Z,49.19
2023-04-20T09:34:09.898Z,49.55
2023-04-20T09:35:09.896Z,50.05
2023-04-20T09:36:09.949Z,49.48
2023-04-20T09:37:10.013Z,49.72
2023-04-20T09:38:10.068Z,50.03
2023-04-20T09:39:10.081Z,50.27
2023-04-20T09:40:10.080Z,50.01
2023-04-20T09:41:10.144Z,50.56
2023-04-20T09:42:10.203Z,50.16
2023-04-20T09:43:10.189Z,50.08
2023-04-20T09:44:10.267Z,49.80
2023-04-20T09:45:10.314Z,49.76
2023-04-20T09:46:10.261Z,49.40
2023-04-20T09:47:10.279Z,49.68
2023-04-20T09:48:10.267Z,50.12
2023-04-20T09:49:10.569Z,49.93
2023-04-20T09:50:23.354Z,49.75
2023-04-20T09:51:11.374Z,50.46
2023-04-20T09:52:10.325Z,50.13
2023-04-20T09:53:10.323Z,49.84
2023-04-20T09:54:10.358Z,50.50
2023-04-20T09:55:10.303Z,50.65
2023-04-20T09:56:10.312Z,50.98
2023-04-20T09:57:10.296Z,55.29
2023-04-20T09:58:10.306Z,51.20
2023-04-20T09:59:10.277Z,50.59
2023-04-20T10:00:10.293Z,50.57
2023-04-20T10:01:10.300Z,50.07
2023-04-20T10:02:10.407Z,50.53
2023-04-20T10:03:10.379Z,50.86
2023-04-20T10:04:10.467Z,51.18
2023-04-20T10:05:10.250Z,51.64
2023-04-20T10:06:10.239Z,51.09
2023-04-20T10:07:10.247Z,50.62
2023-04-20T10:08:10.217Z,50.47
2023-04-20T10:09:10.257Z,50.34
2023-04-20T10:10:10.209Z,50.47
2023-04-20T10:11:10.203Z,50.47
2023-04-20T10:12:10.193Z,50.22
2023-04-20T10:13:10.169Z,50.14
2023-04-20T10:14:10.197Z,50.15
2023-04-20T10:15:10.191Z,49.99
2023-04-20T10:16:10.214Z,50.13
2023-04-20T10:17:10.571Z,50.49
2023-04-20T10:18:10.297Z,51.13
2023-04-20T10:19:10.219Z,50.51
2023-04-20T10:20:10.133Z,50.09
2023-04-20T10:21:10.149Z,50.14
2023-04-20T10:22:10.148Z,50.12
2023-04-20T10:23:10.195Z,49.64
2023-04-20T10:24:10.176Z,49.75
2023-04-20T10:25:10.125Z,49.81
2023-04-20T10:26:10.133Z,49.92
2023-04-20T10:27:10.213Z,50.39
2023-04-20T10:28:10.222Z,50.11
2023-04-20T10:29:10.291Z,49.68
2023-04-20T10:30:10.368Z,49.45
2023-04-20T10:31:10.412Z,49.39
2023-04-20T10:32:10.478Z,49.49
2023-04-20T10:33:10.632Z,50.15
2023-04-20T10:34:10.616Z,50.58
2023-04-20T10:35:10.671Z,50.53
2023-04-20T10:36:10.716Z,50.65
2023-04-20T10:37:10.758Z,50.71
2023-04-20T10:38:10.785Z,50.39
2023-04-20T10:39:10.869Z,50.32
2023-04-20T10:40:10.907Z,50.64
2023-04-20T10:41:10.959Z,50.92
2023-04-20T10:42:10.993Z,50.93
2023-04-20T10:43:11.001Z,50.51
2023-04-20T10:44:11.025Z,51.22
2023-04-20T10:45:11.085Z,50.88
2023-04-20T10:46:11.092Z,51.02
2023-04-20T10:47:11.110Z,51.58
2023-04-20T10:48:11.343Z,51.98
2023-04-20T10:49:11.179Z,52.26
2023-04-20T10:50:11.223Z,51.77
2023-04-20T10:51:11.249Z,51.15
2023-04-20T10:52:11.262Z,51.39
2023-04-20T10:53:11.310Z,51.64
2023-04-20T10:54:11.376Z,51.05
2023-04-20T10:55:11.404Z,51.05
2023-04-20T10:56:11.441Z,50.39
2023-04-20T10:57:11.469Z,50.23
2023-04-20T10:58:11.525Z,49.69
2023-04-20T10:59:11.618Z,49.60
2023-04-20T11:00:11.661Z,49.50
2023-04-20T11:01:11.633Z,50.14
2023-04-20T11:02:11.851Z,49.81
2023-04-20T11:03:11.781Z,50.06
2023-04-20T11:04:11.709Z,49.35
2023-04-20T11:05:11.974Z,49.18
2023-04-20T11:06:11.736Z,49.14
2023-04-20T11:07:11.752Z,48.89
2023-04-20T11:08:11.728Z,49.09
2023-04-20T11:09:11.707Z,49.51
2023-04-20T11:10:11.727Z,49.05
2023-04-20T11:11:11.711Z,49.61
2023-04-20T11:12:11.748Z,49.05
2023-04-20T11:13:11.742Z,49.01
2023-04-20T11:14:11.733Z,48.86
2023-04-20T11:15:11.748Z,48.97
2023-04-20T11:16:11.767Z,49.06
2023-04-20T11:17:11.806Z,49.14
2023-04-20T11:18:11.919Z,49.00
2023-04-20T11:19:11.760Z,49.46
2023-04-20T11:20:11.801Z,49.36
2023-04-20T11:21:11.752Z,48.97
2023-04-20T11:22:11.788Z,48.75
2023-04-20T11:23:11.870Z,48.73
2023-04-20T11:24:11.852Z,48.56
2023-04-20T11:25:11.922Z,48.54
2023-04-20T11:26:11.928Z,48.64
2023-04-20T11:27:11.901Z,48.32
2023-04-20T11:28:11.920Z,47.51
2023-04-20T11:29:11.934Z,47.63
2023-04-20T11:30:11.969Z,46.87
2023-04-20T11:31:12.072Z,46.70
2023-04-20T11:32:12.057Z,47.08
2023-04-20T11:33:12.203Z,47.60
2023-04-20T11:34:12.219Z,47.97
2023-04-20T11:35:12.105Z,48.00
2023-04-20T11:36:12.198Z,48.34
2023-04-20T11:37:12.239Z,48.01
2023-04-20T11:38:12.155Z,48.02
2023-04-20T11:39:12.195Z,48.22
2023-04-20T11:40:12.194Z,47.92
2023-04-20T11:41:12.237Z,47.95
2023-04-20T11:42:12.363Z,48.32
2023-04-20T11:43:12.375Z,48.55
2023-04-20T11:44:12.402Z,48.45
2023-04-20T11:45:12.461Z,48.98
2023-04-20T11:46:12.583Z,49.52
2023-04-20T11:47:12.677Z,49.58
2023-04-20T11:48:12.627Z,49.52
2023-04-20T11:49:12.691Z,49.58
2023-04-20T11:50:12.756Z,49.84
2023-04-20T11:51:12.865Z,49.34
2023-04-20T11:52:12.944Z,49.41
2023-04-20T11:53:12.952Z,49.20
2023-04-20T11:54:12.984Z,49.38
2023-04-20T11:55:13.039Z,49.00
2023-04-20T11:56:13.117Z,49.38
2023-04-20T11:57:13.133Z,49.69
2023-04-20T11:58:13.183Z,49.47
2023-04-20T11:59:13.264Z,49.45
2023-04-20T12:00:13.326Z,49.54
2023-04-20T12:01:13.383Z,49.96
2023-04-20T12:02:13.525Z,50.17
2023-04-20T12:03:13.609Z,50.13
2023-04-20T12:04:14.411Z,50.01
2023-04-20T12:05:13.698Z,50.03
2023-04-20T12:06:13.690Z,49.91
2023-04-20T12:07:13.729Z,49.48
2023-04-20T12:08:13.774Z,49.52
2023-04-20T12:09:13.840Z,49.75
2023-04-20T12:10:13.911Z,49.43
2023-04-20T12:11:13.970Z,49.68
2023-04-20T12:12:13.998Z,49.54
2023-04-20T12:13:14.039Z,49.20
2023-04-20T12:14:14.102Z,49.00
2023-04-20T12:15:14.197Z,48.76
2023-04-20T12:16:14.228Z,48.49
2023-04-20T12:17:14.284Z,49.00
2023-04-20T12:18:14.352Z,49.09
2023-04-20T12:19:14.412Z,49.05
2023-04-20T12:20:14.470Z,49.15
2023-04-20T12:21:14.498Z,49.53
2023-04-20T12:22:14.555Z,49.37
2023-04-20T12:23:14.642Z,49.73
2023-04-20T12:24:14.650Z,49.35
2023-04-20T12:25:14.729Z,49.31
2023-04-20T12:26:14.771Z,49.00
2023-04-20T12:27:14.836Z,48.93
2023-04-20T12:28:14.853Z,48.53
2023-04-20T12:29:14.912Z,48.91
2023-04-20T12:30:14.976Z,49.16
2023-04-20T12:31:14.995Z,49.39
2023-04-20T12:32:15.048Z,49.44
2023-04-20T12:33:15.097Z,49.17
2023-04-20T12:34:15.058Z,49.44
2023-04-20T12:35:15.108Z,49.29
2023-04-20T12:36:15.134Z,48.60
2023-04-20T12:37:15.137Z,48.38
2023-04-20T12:38:15.165Z,48.18
2023-04-20T12:39:15.188Z,48.42
2023-04-20T12:40:15.224Z,48.10
2023-04-20T12:41:15.222Z,47.76
2023-04-20T12:42:15.228Z,47.85
2023-04-20T12:43:15.260Z,47.64
2023-04-20T12:44:15.272Z,47.38
2023-04-20T12:45:15.253Z,47.49
2023-04-20T12:46:15.331Z,48.01
2023-04-20T12:47:15.292Z,48.08
2023-04-20T12:48:15.357Z,48.31
2023-04-20T12:49:15.319Z,48.11
2023-04-20T12:50:15.368Z,48.06
2023-04-20T12:51:15.378Z,48.11
2023-04-20T12:52:15.366Z,48.45
2023-04-20T12:53:15.438Z,48.14
2023-04-20T12:54:15.471Z,48.10